HOURLY OBS INDEX

024

Murray Valley

LOXTON RESEARCH CENTRE

Site: 024024
Alt: 30.1m
33km SSW of RENMARK


  Time     Wind        Temp  DP   Baro     Rain since   Rain past  Vis(m), Cloud(base in m), Weather
  local        km/h                         9am  last   hr   10m    
Tue 15:30  WNW  9/ 24  33.2  5.9  1012.1    0.0   0.0   0.0   0.0   ----- 
Tue 15:30  WNW  9/ 24  33.2  5.9  1012.1    0.0   0.0  ----   0.0   ----- 
Tue 16:00    W  9/ 15  33.6  5.7  1011.6    0.0   0.0   0.0   0.0   ----- 
Tue 16:30   SW  9/ 15  33.7  5.9  1011.4    0.0   0.0   0.0   0.0   ----- 
Tue 17:00    W 11/ 20  33.4  6.3  1011.1    0.0   0.0   0.0   0.0   ----- 
Tue 17:30  SSE  9/ 17  32.9  6.0  1010.9    0.0   0.0   0.0   0.0   ----- 
Tue 18:00  SSW  9/ 15  32.8  6.7  1011.1    0.0   0.0   0.0   0.0   ----- 
Tue 18:30   SW  7/ 11  32.7  7.5  1011.3    0.0   0.0   0.0   0.0   ----- 
Tue 19:00    S  7/ 11  30.7  8.5  1011.5    0.0   0.0   0.0   0.0   ----- 
Tue 19:00    S  7/ 11  30.7  8.5  1011.5    0.0   0.0  ----   0.0   ----- 
Tue 19:00    S  7/ 11  30.7  8.5  1011.5    0.0   0.0  ----   0.0   ----- 
Tue 19:00    S  7/ 11  30.7  8.5  1011.5    0.0   0.0  ----   0.0   ----- 
Tue 19:30    S  7/  9  28.1 10.1  1011.7    0.0   0.0   0.0   0.0   ----- 
Tue 20:00    S  7/  9  23.8 12.0  1012.0    0.0   0.0   0.0   0.0   ----- 
Tue 20:30    S  9/  9  21.9 11.9  1012.2    0.0   0.0   0.0   0.0   ----- 
Tue 20:30    S  9/  9  21.9 11.9  1012.2    0.0   0.0  ----   0.0   ----- 
Tue 20:30    S  9/  9  21.9 11.9  1012.2    0.0   0.0  ----   0.0   ----- 

MURRAY BRIDGE (PALLAMANA AERODROME)

Site: 024584
Alt: 45.0m
7km NW of MURRAY BRIDGE


  Time     Wind        Temp  DP   Baro     Rain since   Rain past  Vis(m), Cloud(base in m), Weather
  local        km/h                         9am  last   hr   10m    
Tue 15:30    S 15/ 22  31.1 10.3  1012.8    0.0   0.0   0.0   0.0   10000 
Tue 15:30    S 15/ 22  31.1 10.3  1012.8    0.0   0.0  ----   0.0   10000 
Tue 16:00    S 19/ 26  30.6 11.5  1012.5    0.0   0.0   0.0   0.0   10000 
Tue 16:30    S 24/ 32  29.9 11.7  1012.2    0.0   0.0   0.0   0.0   10000 
Tue 17:00  SSW 28/ 37  28.6 13.7  1012.3    0.0   0.0   0.0   0.0   10000 
Tue 17:30  SSW 28/ 35  27.5 14.6  1012.4    0.0   0.0   0.0   0.0   10000 
Tue 18:00  SSW 32/ 37  25.9 14.7  1012.7    0.0   0.0   0.0   0.0   10000 
Tue 18:30  SSW 32/ 39  24.3 14.7  1013.0    0.0   0.0   0.0   0.0   10000 
Tue 19:00  SSW 22/ 30  22.4 14.8  1013.6    0.0   0.0   0.0   0.0   10000 
Tue 19:00  SSW 22/ 30  22.4 14.8  1013.6    0.0   0.0  ----   0.0   10000 
Tue 19:00  SSW 22/ 30  22.4 14.8  1013.6    0.0   0.0  ----   0.0   10000 
Tue 19:00  SSW 22/ 30  22.4 14.8  1013.6    0.0   0.0  ----   0.0   10000 
Tue 19:30  SSW 19/ 24  20.7 14.9  1013.9    0.0   0.0   0.0   0.0   10000 
Tue 20:00  SSW 19/ 24  19.3 15.4  1014.3    0.0   0.0   0.0   0.0   10000 
Tue 20:30  SSW 17/ 22  18.6 15.2  1014.7    0.0   0.0   0.0   0.0   10000 
Tue 20:30  SSW 17/ 22  18.6 15.2  1014.7    0.0   0.0  ----   0.0   10000 
Tue 20:30  SSW 17/ 22  18.6 15.2  1014.7    0.0   0.0  ----   0.0   10000 

RENMARK AERO

Site: 024048
Alt: 31.5m
7km WSW of RENMARK


  Time     Wind        Temp  DP   Baro     Rain since   Rain past  Vis(m), Cloud(base in m), Weather
  local        km/h                         9am  last   hr   10m    
Tue 15:30  SSE  9/ 26  33.7  6.9  1011.8    0.0   0.0   0.0   0.0   10000 
Tue 15:30  SSE  9/ 26  33.7  6.9  1011.8    0.0   0.0  ----   0.0   10000 
Tue 16:00  SSW 13/ 19  33.1  6.4  1011.4    0.0   0.0   0.0   0.0   10000 
Tue 16:30    W 15/ 22  33.7  5.3  1011.2    0.0   0.0   0.0   0.0   10000 
Tue 17:00   NW 11/ 22  34.0  5.5  1010.9    0.0   0.0   0.0   0.0   10000 
Tue 17:30  WSW 13/ 19  33.5  5.1  1010.8    0.0   0.0   0.0   0.0   10000 
Tue 18:00    S 11/ 19  33.2  7.2  1010.8    0.0   0.0   0.0   0.0   10000 
Tue 18:30    S 15/ 20  32.6  6.0  1011.0    0.0   0.0   0.0   0.0   10000 
Tue 19:00    S 13/ 17  32.0  6.2  1011.3    0.0   0.0   0.0   0.0   10000 
Tue 19:00    S 13/ 17  32.0  6.2  1011.3    0.0   0.0  ----   0.0   10000 
Tue 19:00    S 13/ 17  32.0  6.2  1011.3    0.0   0.0  ----   0.0   10000 
Tue 19:00    S 13/ 17  32.0  6.2  1011.3    0.0   0.0  ----   0.0   10000 
Tue 19:30    S 11/ 13  30.4  6.3  1011.4    0.0   0.0   0.0   0.0   10000 
Tue 20:00    S  9/ 11  28.8  6.2  1011.7    0.0   0.0   0.0   0.0   10000 
Tue 20:30    S  9/ 11  27.9  6.6  1011.9    0.0   0.0   0.0   0.0   10000 
Tue 20:30    S  9/ 11  27.9  6.6  1011.9    0.0   0.0  ----   0.0   10000 
Tue 20:30    S  9/ 11  27.9  6.6  1011.9    0.0   0.0  ----   0.0   10000 

STRATHALBYN RACECOURSE

Site: 024580
Alt: 58.0m
39km NE of VICTOR HARBOR


  Time     Wind        Temp  DP   Baro     Rain since   Rain past  Vis(m), Cloud(base in m), Weather
  local        km/h                         9am  last   hr   10m    
Tue 15:30    S 20/ 28  25.7 14.2  1013.4    0.0   0.0   0.0   0.0   ----- 
Tue 15:30    S 20/ 28  25.7 14.2  1013.4    0.0   0.0  ----   0.0   ----- 
Tue 16:00    S 22/ 28  25.4 14.5  1013.3    0.0   0.0   0.0   0.0   ----- 
Tue 16:30    S 22/ 30  24.4 15.1  1013.3    0.0   0.0   0.0   0.0   ----- 
Tue 17:00    S 24/ 30  22.8 14.6  1013.2    0.0   0.0   0.0   0.0   ----- 
Tue 17:30    S 24/ 30  22.4 14.8  1013.3    0.0   0.0   0.0   0.0   ----- 
Tue 18:00  SSW 24/ 30  21.3 14.7  1013.5    0.0   0.0   0.0   0.0   ----- 
Tue 18:30  SSW 24/ 30  20.0 14.6  1013.7    0.0   0.0   0.0   0.0   ----- 
Tue 19:00  SSW 20/ 30  19.2 14.5  1014.0    0.0   0.0   0.0   0.0   ----- 
Tue 19:00  SSW 20/ 30  19.2 14.5  1014.0    0.0   0.0  ----   0.0   ----- 
Tue 19:00  SSW 20/ 30  19.2 14.5  1014.0    0.0   0.0  ----   0.0   ----- 
Tue 19:00  SSW 20/ 30  19.2 14.5  1014.0    0.0   0.0  ----   0.0   ----- 
Tue 19:30  SSW 19/ 22  18.2 14.5  1014.1    0.0   0.0   0.0   0.0   ----- 
Tue 20:00  SSW 17/ 20  17.4 14.5  1014.3    0.0   0.0   0.0   0.0   ----- 
Tue 20:30  SSW 15/ 20  17.0 14.3  1014.7    0.0   0.0   0.0   0.0   ----- 
Tue 20:30  SSW 15/ 20  17.0 14.3  1014.7    0.0   0.0  ----   0.0   ----- 
Tue 20:30  SSW 15/ 20  17.0 14.3  1014.7    0.0   0.0  ----   0.0   -----